createdAt,value
2022-10-27T00:00:04.576Z,0.00
2022-10-27T00:01:03.670Z,0.00
2022-10-27T00:02:03.674Z,0.00
2022-10-27T00:03:03.683Z,0.00
2022-10-27T00:04:04.555Z,0.00
2022-10-27T00:05:04.264Z,0.00
2022-10-27T00:06:03.527Z,0.00
2022-10-27T00:07:03.153Z,0.00
2022-10-27T00:08:02.594Z,0.00
2022-10-27T00:09:03.209Z,0.00
2022-10-27T00:10:03.740Z,0.00
2022-10-27T00:11:03.116Z,0.00
2022-10-27T00:12:03.283Z,0.00
2022-10-27T00:13:07.737Z,0.00
2022-10-27T00:14:03.340Z,0.00
2022-10-27T00:15:04.706Z,0.00
2022-10-27T00:16:04.591Z,0.00
2022-10-27T00:17:04.292Z,0.00
2022-10-27T00:18:04.094Z,0.00
2022-10-27T00:19:03.396Z,0.00
2022-10-27T00:21:04.547Z,0.00
2022-10-27T00:22:03.048Z,0.00
2022-10-27T00:23:03.528Z,0.00
2022-10-27T00:24:03.216Z,0.00
2022-10-27T00:25:03.939Z,0.00
2022-10-27T00:26:03.081Z,0.00
2022-10-27T00:27:04.122Z,0.00
2022-10-27T00:28:03.444Z,0.00
2022-10-27T00:29:02.433Z,0.00
2022-10-27T00:30:10.596Z,0.00
2022-10-27T00:31:02.431Z,0.00
2022-10-27T00:32:09.315Z,0.00
2022-10-27T00:33:05.532Z,0.00
2022-10-27T00:34:04.231Z,0.00
2022-10-27T00:35:03.588Z,0.00
2022-10-27T00:36:03.472Z,0.00
2022-10-27T00:37:04.532Z,0.00
2022-10-27T00:38:03.105Z,0.00
2022-10-27T00:39:06.177Z,0.00
2022-10-27T00:40:03.092Z,0.00
2022-10-27T00:41:09.332Z,0.00
2022-10-27T00:42:05.037Z,0.00
2022-10-27T00:43:02.946Z,0.00
2022-10-27T00:44:03.540Z,0.00
2022-10-27T00:45:05.321Z,0.00
2022-10-27T00:46:04.264Z,0.00
2022-10-27T00:47:04.047Z,0.00
2022-10-27T00:48:02.334Z,0.00
2022-10-27T00:49:05.105Z,0.00
2022-10-27T00:50:02.372Z,0.00
2022-10-27T00:51:05.044Z,0.00
2022-10-27T00:52:04.601Z,0.00
2022-10-27T00:53:03.583Z,0.00
2022-10-27T00:54:03.093Z,0.00
2022-10-27T00:55:07.540Z,0.00
2022-10-27T00:56:02.212Z,0.00
2022-10-27T00:57:05.701Z,0.00
2022-10-27T00:58:03.253Z,0.00
2022-10-27T00:59:04.793Z,0.00
2022-10-27T01:00:02.934Z,0.00
2022-10-27T01:01:04.338Z,0.00
2022-10-27T01:02:04.102Z,0.00
2022-10-27T01:03:04.135Z,0.00
2022-10-27T01:04:03.734Z,0.00
2022-10-27T01:05:04.631Z,0.00
2022-10-27T01:06:02.775Z,0.00
2022-10-27T01:07:03.192Z,0.00
2022-10-27T01:08:02.095Z,0.00
2022-10-27T01:09:02.692Z,0.00
2022-10-27T01:10:04.118Z,0.00
2022-10-27T01:11:03.124Z,0.00
2022-10-27T01:12:03.638Z,0.00
2022-10-27T01:13:02.125Z,0.00
2022-10-27T01:14:02.100Z,0.00
2022-10-27T01:15:03.679Z,0.00
2022-10-27T01:16:02.151Z,0.00
2022-10-27T01:17:07.567Z,0.00
2022-10-27T01:18:02.065Z,0.00
2022-10-27T01:19:03.774Z,0.00
2022-10-27T01:20:03.240Z,0.00
2022-10-27T01:21:02.612Z,0.00
2022-10-27T01:22:03.720Z,0.00
2022-10-27T01:23:02.819Z,0.00
2022-10-27T01:24:02.601Z,0.00
2022-10-27T01:25:05.685Z,0.00
2022-10-27T01:26:03.399Z,0.00
2022-10-27T01:27:03.869Z,0.00
2022-10-27T01:28:02.873Z,0.00
2022-10-27T01:29:05.546Z,0.00
2022-10-27T01:30:18.119Z,0.00
2022-10-27T01:31:02.971Z,0.00
2022-10-27T01:32:03.614Z,0.00
2022-10-27T01:33:03.290Z,0.00
2022-10-27T01:34:02.880Z,0.00
2022-10-27T01:35:07.191Z,0.00
2022-10-27T01:36:03.547Z,0.00
2022-10-27T01:37:09.691Z,0.00
2022-10-27T01:38:03.247Z,0.00
2022-10-27T01:39:02.897Z,0.00
2022-10-27T01:40:28.742Z,0.00
2022-10-27T01:41:01.795Z,0.00
2022-10-27T01:42:01.793Z,0.00
2022-10-27T01:43:01.789Z,0.00
2022-10-27T01:44:01.848Z,0.00
2022-10-27T01:45:01.801Z,0.00
2022-10-27T01:46:01.809Z,0.00
2022-10-27T01:47:01.775Z,0.00
2022-10-27T01:48:01.752Z,0.00
2022-10-27T01:49:01.745Z,0.00
2022-10-27T01:50:01.742Z,0.00
2022-10-27T01:51:02.454Z,0.00
2022-10-27T01:52:01.710Z,0.00
2022-10-27T01:53:01.709Z,0.00
2022-10-27T01:54:01.708Z,0.00
2022-10-27T01:55:01.734Z,0.00
2022-10-27T01:56:01.714Z,0.00
2022-10-27T01:57:01.716Z,0.00
2022-10-27T01:58:01.674Z,0.00
2022-10-27T01:59:01.676Z,0.00
2022-10-27T02:00:01.696Z,0.00
2022-10-27T02:01:01.763Z,0.00
2022-10-27T02:02:01.638Z,0.00
2022-10-27T02:03:01.641Z,0.00
2022-10-27T02:04:01.665Z,0.00
2022-10-27T02:05:01.617Z,0.00
2022-10-27T02:06:01.627Z,0.00
2022-10-27T02:07:01.607Z,0.00
2022-10-27T02:08:01.609Z,0.00
2022-10-27T02:09:01.618Z,0.00
2022-10-27T02:10:01.587Z,0.00
2022-10-27T02:11:01.605Z,0.00
2022-10-27T02:12:01.570Z,0.00
2022-10-27T02:13:01.580Z,0.00
2022-10-27T02:14:01.548Z,0.00
2022-10-27T02:15:01.538Z,0.00
2022-10-27T02:16:01.572Z,0.00
2022-10-27T02:17:01.523Z,0.00
2022-10-27T02:18:01.512Z,0.00
2022-10-27T02:19:01.508Z,0.00
2022-10-27T02:20:01.491Z,0.00
2022-10-27T02:21:01.517Z,0.00
2022-10-27T02:22:01.514Z,0.00
2022-10-27T02:23:01.478Z,0.00
2022-10-27T02:24:01.456Z,0.00
2022-10-27T02:25:01.454Z,0.00
2022-10-27T02:26:01.469Z,0.00
2022-10-27T02:27:01.442Z,0.00
2022-10-27T02:28:01.428Z,0.00
2022-10-27T02:29:01.432Z,0.00
2022-10-27T02:30:01.425Z,0.00
2022-10-27T02:31:01.438Z,0.00
2022-10-27T02:32:01.410Z,0.00
2022-10-27T02:33:01.386Z,0.00
2022-10-27T02:34:01.378Z,0.00
2022-10-27T02:35:01.375Z,0.00
2022-10-27T02:36:01.392Z,0.00
2022-10-27T02:37:01.353Z,0.00
2022-10-27T02:38:01.353Z,0.00
2022-10-27T02:39:01.341Z,0.00
2022-10-27T02:40:01.341Z,0.00
2022-10-27T02:41:01.367Z,0.00
2022-10-27T02:42:01.321Z,0.00
2022-10-27T02:43:01.313Z,0.00
2022-10-27T02:44:01.302Z,0.00
2022-10-27T02:45:01.301Z,0.00
2022-10-27T02:46:01.318Z,0.00
2022-10-27T02:47:02.114Z,0.00
2022-10-27T02:48:02.272Z,0.00
2022-10-27T02:49:01.259Z,0.00
2022-10-27T02:50:01.283Z,0.00
2022-10-27T02:51:01.286Z,0.00
2022-10-27T02:52:01.260Z,0.00
2022-10-27T02:53:01.241Z,0.00
2022-10-27T02:54:01.231Z,0.00
2022-10-27T02:55:01.215Z,0.00
2022-10-27T02:56:01.234Z,0.00
2022-10-27T02:57:01.215Z,0.00
2022-10-27T02:58:01.191Z,0.00
2022-10-27T02:59:01.190Z,0.00
2022-10-27T03:00:01.288Z,0.00
2022-10-27T03:01:01.270Z,0.00
2022-10-27T03:02:01.244Z,0.00
2022-10-27T03:03:01.160Z,0.00
2022-10-27T03:04:01.145Z,0.00
2022-10-27T03:05:01.141Z,0.00
2022-10-27T03:06:01.166Z,0.00
2022-10-27T03:07:01.139Z,0.00
2022-10-27T03:08:01.153Z,0.00
2022-10-27T03:09:01.107Z,0.00
2022-10-27T03:10:01.134Z,0.00
2022-10-27T03:11:01.132Z,0.00
2022-10-27T03:12:01.084Z,0.00
2022-10-27T03:13:01.080Z,0.00
2022-10-27T03:14:01.070Z,0.00
2022-10-27T03:15:01.059Z,0.00
2022-10-27T03:16:01.056Z,0.00
2022-10-27T03:17:01.077Z,0.00
2022-10-27T03:18:01.020Z,0.00
2022-10-27T03:19:02.033Z,0.00
2022-10-27T03:20:01.029Z,0.00
2022-10-27T03:21:01.022Z,0.00
2022-10-27T03:22:01.037Z,0.00
2022-10-27T03:23:01.005Z,0.00
2022-10-27T03:24:00.997Z,0.00
2022-10-27T03:25:00.986Z,0.00
2022-10-27T03:26:00.988Z,0.00
2022-10-27T03:27:00.990Z,0.00
2022-10-27T03:28:00.965Z,0.00
2022-10-27T03:29:00.953Z,0.00
2022-10-27T03:30:00.938Z,0.00
2022-10-27T03:31:00.933Z,0.00
2022-10-27T03:32:00.956Z,0.00
2022-10-27T03:33:00.975Z,0.00
2022-10-27T03:34:00.912Z,0.00
2022-10-27T03:35:00.910Z,0.00
2022-10-27T03:36:00.921Z,0.00
2022-10-27T03:37:00.917Z,0.00
2022-10-27T03:38:00.896Z,0.00
2022-10-27T03:39:00.886Z,0.00
2022-10-27T03:40:00.878Z,0.00
2022-10-27T03:41:00.862Z,0.00
2022-10-27T03:42:00.883Z,0.00
2022-10-27T03:43:00.855Z,0.00
2022-10-27T03:44:00.845Z,0.00
2022-10-27T03:45:00.848Z,0.00
2022-10-27T03:46:01.171Z,0.00
2022-10-27T03:47:00.851Z,0.00
2022-10-27T03:48:00.798Z,0.00
2022-10-27T03:49:01.813Z,0.00
2022-10-27T03:50:00.793Z,0.00
2022-10-27T03:51:00.790Z,0.00
2022-10-27T03:52:00.804Z,0.00
2022-10-27T03:53:00.777Z,0.00
2022-10-27T03:54:00.772Z,0.00
2022-10-27T03:55:00.789Z,0.00
2022-10-27T03:56:00.762Z,0.00
2022-10-27T03:57:00.784Z,0.00
2022-10-27T03:58:00.739Z,0.00
2022-10-27T03:59:00.734Z,0.00
2022-10-27T04:00:00.729Z,0.00
2022-10-27T04:01:00.771Z,0.00
2022-10-27T04:02:02.333Z,0.00
2022-10-27T04:03:00.707Z,0.00
2022-10-27T04:04:00.688Z,0.00
2022-10-27T04:05:00.684Z,0.00
2022-10-27T04:06:00.674Z,0.00
2022-10-27T04:07:00.710Z,0.00
2022-10-27T04:08:00.657Z,0.00
2022-10-27T04:09:00.697Z,0.00
2022-10-27T04:10:00.649Z,0.00
2022-10-27T04:11:00.657Z,0.00
2022-10-27T04:12:00.672Z,0.00
2022-10-27T04:13:00.623Z,0.00
2022-10-27T04:14:00.622Z,0.00
2022-10-27T04:15:00.616Z,0.00
2022-10-27T04:16:00.601Z,0.00
2022-10-27T04:17:00.624Z,0.00
2022-10-27T04:18:00.585Z,0.00
2022-10-27T04:19:00.584Z,0.00
2022-10-27T04:20:00.567Z,0.00
2022-10-27T04:21:01.591Z,0.00
2022-10-27T04:22:00.558Z,0.00
2022-10-27T04:23:00.546Z,0.00
2022-10-27T04:24:00.540Z,0.00
2022-10-27T04:25:00.534Z,0.00
2022-10-27T04:26:00.562Z,0.00
2022-10-27T04:27:00.532Z,0.00
2022-10-27T04:28:00.511Z,0.00
2022-10-27T04:29:00.502Z,0.00
2022-10-27T04:30:00.490Z,0.00
2022-10-27T04:31:00.481Z,0.00
2022-10-27T04:32:00.497Z,0.00
2022-10-27T04:33:00.475Z,0.00
2022-10-27T04:34:00.464Z,0.00
2022-10-27T04:35:00.473Z,0.00
2022-10-27T04:36:00.478Z,0.00
2022-10-27T04:37:00.454Z,0.00
2022-10-27T04:38:00.439Z,0.00
2022-10-27T04:39:00.415Z,0.00
2022-10-27T04:40:00.416Z,0.00
2022-10-27T04:41:00.442Z,0.00
2022-10-27T04:42:00.392Z,0.00
2022-10-27T04:43:00.393Z,0.00
2022-10-27T04:44:00.382Z,0.00
2022-10-27T04:45:00.384Z,0.00
2022-10-27T04:46:00.396Z,0.00
2022-10-27T04:47:00.354Z,0.00
2022-10-27T04:48:01.370Z,0.00
2022-10-27T04:49:00.351Z,0.00
2022-10-27T04:50:00.397Z,0.00
2022-10-27T04:51:00.359Z,0.00
2022-10-27T04:52:00.386Z,0.00
2022-10-27T04:53:00.309Z,0.00
2022-10-27T04:54:00.309Z,0.00
2022-10-27T04:55:00.302Z,0.00
2022-10-27T04:56:00.316Z,0.00
2022-10-27T04:57:00.286Z,0.00
2022-10-27T04:58:01.548Z,0.00
2022-10-27T04:59:00.263Z,0.00
2022-10-27T05:00:00.261Z,0.00
2022-10-27T05:01:00.277Z,0.00
2022-10-27T05:02:00.402Z,0.00
2022-10-27T05:03:00.289Z,0.00
2022-10-27T05:04:00.229Z,0.00
2022-10-27T05:05:00.221Z,0.00
2022-10-27T05:06:00.233Z,0.00
2022-10-27T05:07:00.209Z,0.00
2022-10-27T05:08:00.200Z,0.00
2022-10-27T05:09:00.249Z,0.00
2022-10-27T05:10:00.172Z,0.00
2022-10-27T05:11:00.192Z,0.00
2022-10-27T05:12:00.166Z,0.00
2022-10-27T05:13:00.160Z,0.00
2022-10-27T05:14:00.147Z,0.00
2022-10-27T05:15:00.138Z,0.00
2022-10-27T05:16:00.154Z,0.00
2022-10-27T05:17:00.178Z,0.00
2022-10-27T05:18:00.127Z,0.00
2022-10-27T05:19:00.110Z,0.00
2022-10-27T05:20:00.104Z,0.00
2022-10-27T05:21:00.121Z,0.00
2022-10-27T05:22:00.081Z,0.00
2022-10-27T05:23:00.084Z,0.00
2022-10-27T05:24:00.092Z,0.00
2022-10-27T05:25:00.059Z,0.00
2022-10-27T05:26:00.123Z,0.00
2022-10-27T05:27:00.057Z,0.00
2022-10-27T05:28:00.039Z,0.00
2022-10-27T05:29:00.034Z,0.00
2022-10-27T05:30:00.033Z,0.00
2022-10-27T05:31:00.052Z,0.00
2022-10-27T05:32:00.002Z,0.00
2022-10-27T05:32:59.998Z,0.00
2022-10-27T05:35:00.991Z,0.00
2022-10-27T05:35:59.975Z,0.00
2022-10-27T05:36:59.988Z,0.00
2022-10-27T05:37:59.964Z,0.00
2022-10-27T05:38:59.953Z,0.00
2022-10-27T05:39:59.947Z,0.00
2022-10-27T05:40:59.943Z,0.00
2022-10-27T05:41:59.977Z,0.00
2022-10-27T05:42:59.933Z,0.00
2022-10-27T05:43:59.925Z,0.00
2022-10-27T05:44:59.913Z,0.00
2022-10-27T05:45:59.894Z,0.00
2022-10-27T05:46:59.933Z,0.00
2022-10-27T05:47:59.884Z,0.00
2022-10-27T05:48:59.880Z,0.00
2022-10-27T05:49:59.867Z,0.00
2022-10-27T05:50:59.863Z,0.00
2022-10-27T05:51:59.879Z,0.00
2022-10-27T05:52:59.843Z,0.00
2022-10-27T05:53:59.843Z,0.00
2022-10-27T05:54:59.836Z,0.00
2022-10-27T05:55:59.827Z,0.00
2022-10-27T05:56:59.844Z,0.00
2022-10-27T05:57:59.804Z,0.00
2022-10-27T05:58:59.872Z,0.00
2022-10-27T06:00:00.813Z,0.00
2022-10-27T06:00:59.851Z,0.00
2022-10-27T06:01:59.896Z,0.00
2022-10-27T06:02:59.767Z,0.00
2022-10-27T06:03:59.764Z,0.00
2022-10-27T06:04:59.779Z,0.00
2022-10-27T06:05:59.754Z,0.00
2022-10-27T06:06:59.762Z,0.00
2022-10-27T06:07:59.732Z,0.00
2022-10-27T06:08:59.725Z,0.00
2022-10-27T06:09:59.716Z,0.00
2022-10-27T06:10:59.707Z,0.00
2022-10-27T06:11:59.722Z,0.00
2022-10-27T06:12:59.692Z,0.00
2022-10-27T06:13:59.709Z,0.00
2022-10-27T06:14:59.676Z,0.00
2022-10-27T06:15:59.680Z,0.00
2022-10-27T06:16:59.659Z,0.00
2022-10-27T06:17:59.649Z,0.00
2022-10-27T06:18:59.674Z,0.00
2022-10-27T06:19:59.652Z,0.00
2022-10-27T06:20:59.625Z,0.00
2022-10-27T06:21:59.619Z,0.00
2022-10-27T06:22:59.615Z,0.00
2022-10-27T06:23:59.661Z,0.00
2022-10-27T06:24:59.594Z,0.00
2022-10-27T06:25:59.584Z,0.00
2022-10-27T06:26:59.589Z,0.00
2022-10-27T06:27:59.572Z,0.00
2022-10-27T06:28:59.588Z,5.62
2022-10-27T06:29:59.554Z,5.62
2022-10-27T06:30:59.550Z,5.62
2022-10-27T06:31:59.546Z,5.62
2022-10-27T06:32:59.538Z,5.62
2022-10-27T06:33:59.560Z,5.62
2022-10-27T06:34:59.515Z,5.62
2022-10-27T06:35:59.544Z,5.62
2022-10-27T06:36:59.503Z,5.62
2022-10-27T06:37:59.545Z,5.62
2022-10-27T06:38:59.510Z,5.62
2022-10-27T06:39:59.515Z,5.62
2022-10-27T06:40:59.519Z,5.62
2022-10-27T06:41:59.493Z,11.25
2022-10-27T06:43:06.907Z,11.25
2022-10-27T06:44:01.443Z,5.62
2022-10-27T06:44:59.431Z,5.62
2022-10-27T06:46:01.758Z,5.62
2022-10-27T06:47:00.445Z,11.25
2022-10-27T06:47:59.434Z,11.25
2022-10-27T06:48:59.451Z,11.25
2022-10-27T06:49:59.406Z,11.25
2022-10-27T06:50:59.396Z,11.25
2022-10-27T06:51:59.390Z,11.25
2022-10-27T06:52:59.376Z,11.25
2022-10-27T06:53:59.390Z,11.25
2022-10-27T06:54:59.358Z,11.25
2022-10-27T06:55:59.380Z,11.25
2022-10-27T06:56:59.344Z,11.25
2022-10-27T06:57:59.337Z,11.25
2022-10-27T06:58:59.339Z,11.25
2022-10-27T06:59:59.331Z,11.25
2022-10-27T07:00:59.339Z,16.88
2022-10-27T07:01:59.392Z,16.88
2022-10-27T07:02:59.421Z,16.88
2022-10-27T07:03:59.291Z,16.88
2022-10-27T07:04:59.291Z,16.88
2022-10-27T07:05:59.300Z,16.88
2022-10-27T07:06:59.270Z,16.88
2022-10-27T07:07:59.262Z,16.88
2022-10-27T07:08:59.257Z,16.88
2022-10-27T07:09:59.243Z,16.88
2022-10-27T07:10:59.269Z,16.88
2022-10-27T07:11:59.240Z,16.88
2022-10-27T07:12:59.229Z,22.50
2022-10-27T07:13:59.226Z,22.50
2022-10-27T07:14:59.206Z,22.50
2022-10-27T07:15:59.222Z,22.50
2022-10-27T07:16:59.189Z,22.50
2022-10-27T07:17:59.796Z,22.50
2022-10-27T07:18:59.175Z,22.50
2022-10-27T07:19:59.168Z,22.50
2022-10-27T07:20:59.186Z,22.50
2022-10-27T07:21:59.148Z,22.50
2022-10-27T07:22:59.151Z,22.50
2022-10-27T07:23:59.137Z,22.50
2022-10-27T07:24:59.133Z,22.50
2022-10-27T07:25:59.151Z,22.50
2022-10-27T07:26:59.112Z,22.50
2022-10-27T07:27:59.152Z,22.50
2022-10-27T07:28:59.103Z,22.50
2022-10-27T07:29:59.089Z,22.50
2022-10-27T07:30:59.115Z,22.50
2022-10-27T07:31:59.084Z,22.50
2022-10-27T07:32:59.079Z,22.50
2022-10-27T07:33:59.112Z,28.12
2022-10-27T07:34:59.070Z,28.12
2022-10-27T07:35:59.074Z,28.12
2022-10-27T07:36:59.044Z,28.12
2022-10-27T07:37:59.029Z,28.12
2022-10-27T07:38:59.022Z,28.12
2022-10-27T07:40:33.337Z,33.75
2022-10-27T07:40:59.011Z,28.12
2022-10-27T07:41:59.093Z,28.12
2022-10-27T07:43:00.710Z,28.12
2022-10-27T07:43:58.989Z,28.12
2022-10-27T07:44:58.990Z,28.12
2022-10-27T07:45:59.036Z,33.75
2022-10-27T07:46:58.966Z,33.75
2022-10-27T07:47:58.956Z,33.75
2022-10-27T07:48:58.981Z,39.38
2022-10-27T07:49:58.941Z,39.38
2022-10-27T07:50:58.970Z,39.38
2022-10-27T07:51:58.953Z,39.38
2022-10-27T07:52:58.927Z,45.00
2022-10-27T07:53:58.946Z,45.00
2022-10-27T07:54:58.911Z,45.00
2022-10-27T07:55:58.932Z,45.00
2022-10-27T07:56:58.900Z,45.00
2022-10-27T07:57:58.884Z,50.62
2022-10-27T07:58:58.940Z,50.62
2022-10-27T07:59:58.861Z,50.62
2022-10-27T08:00:58.928Z,56.25
2022-10-27T08:01:58.957Z,56.25
2022-10-27T08:02:58.857Z,50.62
2022-10-27T08:03:58.855Z,56.25
2022-10-27T08:04:58.834Z,50.62
2022-10-27T08:05:58.847Z,50.62
2022-10-27T08:06:58.817Z,50.62
2022-10-27T08:07:58.801Z,50.62
2022-10-27T08:08:58.798Z,50.62
2022-10-27T08:09:58.811Z,50.62
2022-10-27T08:10:58.803Z,56.25
2022-10-27T08:11:58.766Z,50.62
2022-10-27T08:12:58.760Z,50.62
2022-10-27T08:13:58.791Z,50.62
2022-10-27T08:14:58.757Z,50.62
2022-10-27T08:15:58.780Z,50.62
2022-10-27T08:17:01.312Z,50.62
2022-10-27T08:17:59.776Z,50.62
2022-10-27T08:18:58.728Z,50.62
2022-10-27T08:19:58.715Z,50.62
2022-10-27T08:20:58.799Z,50.62
2022-10-27T08:21:58.694Z,50.62
2022-10-27T08:22:58.683Z,50.62
2022-10-27T08:23:58.718Z,50.62
2022-10-27T08:24:58.668Z,50.62
2022-10-27T08:25:58.726Z,50.62
2022-10-27T08:26:58.661Z,50.62
2022-10-27T08:27:58.642Z,50.62
2022-10-27T08:28:58.635Z,50.62
2022-10-27T08:29:58.632Z,50.62
2022-10-27T08:30:58.694Z,50.62
2022-10-27T08:31:58.613Z,50.62
2022-10-27T08:32:58.615Z,56.25
2022-10-27T08:33:58.604Z,50.62
2022-10-27T08:34:58.601Z,56.25
2022-10-27T08:35:58.651Z,56.25
2022-10-27T08:36:58.593Z,56.25
2022-10-27T08:37:58.585Z,56.25
2022-10-27T08:38:58.561Z,50.62
2022-10-27T08:39:58.555Z,50.62
2022-10-27T08:40:58.761Z,56.25
2022-10-27T08:41:58.552Z,56.25
2022-10-27T08:42:58.549Z,56.25
2022-10-27T08:43:58.542Z,56.25
2022-10-27T08:44:58.551Z,56.25
2022-10-27T08:45:58.548Z,56.25
2022-10-27T08:46:58.512Z,56.25
2022-10-27T08:47:58.514Z,56.25
2022-10-27T08:48:58.490Z,56.25
2022-10-27T08:49:58.494Z,56.25
2022-10-27T08:50:58.499Z,56.25
2022-10-27T08:51:58.472Z,56.25
2022-10-27T08:53:01.105Z,56.25
2022-10-27T08:54:00.457Z,56.25
2022-10-27T08:54:58.448Z,56.25
2022-10-27T08:55:58.464Z,56.25
2022-10-27T08:56:58.429Z,61.88
2022-10-27T08:57:58.424Z,61.88
2022-10-27T08:58:58.412Z,61.88
2022-10-27T08:59:58.404Z,61.88
2022-10-27T09:00:58.421Z,61.88
2022-10-27T09:01:58.498Z,61.88
2022-10-27T09:02:58.388Z,61.88
2022-10-27T09:03:58.367Z,56.25
2022-10-27T09:04:58.363Z,56.25
2022-10-27T09:05:58.386Z,56.25
2022-10-27T09:06:58.345Z,56.25
2022-10-27T09:07:58.335Z,56.25
2022-10-27T09:08:58.326Z,56.25
2022-10-27T09:09:58.323Z,56.25
2022-10-27T09:10:59.182Z,56.25
2022-10-27T09:11:58.307Z,50.62
2022-10-27T09:12:58.297Z,45.00
2022-10-27T09:13:58.283Z,39.38
2022-10-27T09:14:58.308Z,45.00
2022-10-27T09:15:58.272Z,50.62
2022-10-27T09:16:58.260Z,50.62
2022-10-27T09:17:58.255Z,45.00
2022-10-27T09:18:58.238Z,45.00
2022-10-27T09:19:59.270Z,39.38
2022-10-27T09:20:58.292Z,39.38
2022-10-27T09:21:58.225Z,45.00
2022-10-27T09:22:58.217Z,45.00
2022-10-27T09:23:58.213Z,45.00
2022-10-27T09:24:58.227Z,50.62
2022-10-27T09:25:58.192Z,50.62
2022-10-27T09:26:58.188Z,50.62
2022-10-27T09:27:58.178Z,50.62
2022-10-27T09:28:58.169Z,56.25
2022-10-27T09:30:00.608Z,56.25
2022-10-27T09:30:58.159Z,56.25
2022-10-27T09:31:58.150Z,56.25
2022-10-27T09:32:58.130Z,61.88
2022-10-27T09:33:59.142Z,67.50
2022-10-27T09:34:58.142Z,67.50
2022-10-27T09:35:58.141Z,67.50
2022-10-27T09:36:58.106Z,73.12
2022-10-27T09:37:58.095Z,73.12
2022-10-27T09:38:58.100Z,73.12
2022-10-27T09:39:58.082Z,73.12
2022-10-27T09:40:58.143Z,73.12
2022-10-27T09:41:58.067Z,84.38
2022-10-27T09:42:58.065Z,95.62
2022-10-27T09:43:58.921Z,101.25
2022-10-27T09:44:58.077Z,112.50
2022-10-27T09:45:58.038Z,118.12
2022-10-27T09:46:58.028Z,129.38
2022-10-27T09:47:58.019Z,118.12
2022-10-27T09:48:58.015Z,95.62
2022-10-27T09:49:58.033Z,95.62
2022-10-27T09:50:58.007Z,84.38
2022-10-27T09:51:58.039Z,78.75
2022-10-27T09:52:57.985Z,78.75
2022-10-27T09:53:57.972Z,84.38
2022-10-27T09:54:59.004Z,84.38
2022-10-27T09:55:57.961Z,84.38
2022-10-27T09:56:57.957Z,84.38
2022-10-27T09:57:57.946Z,78.75
2022-10-27T09:58:57.963Z,78.75
2022-10-27T09:59:57.965Z,67.50
2022-10-27T10:00:57.928Z,78.75
2022-10-27T10:01:57.938Z,78.75
2022-10-27T10:02:57.988Z,78.75
2022-10-27T10:04:57.923Z,73.12
2022-10-27T10:05:57.886Z,73.12
2022-10-27T10:06:57.891Z,73.12
2022-10-27T10:07:57.870Z,73.12
2022-10-27T10:08:57.864Z,78.75
2022-10-27T10:09:57.855Z,84.38
2022-10-27T10:10:57.873Z,84.38
2022-10-27T10:11:57.950Z,90.00
2022-10-27T10:12:57.834Z,84.38
2022-10-27T10:13:57.816Z,78.75
2022-10-27T10:14:57.809Z,78.75
2022-10-27T10:15:57.836Z,84.38
2022-10-27T10:16:57.804Z,78.75
2022-10-27T10:17:57.812Z,78.75
2022-10-27T10:18:57.789Z,90.00
2022-10-27T10:19:57.830Z,95.62
2022-10-27T10:20:57.790Z,90.00
2022-10-27T10:21:57.754Z,90.00
2022-10-27T10:22:57.755Z,95.62
2022-10-27T10:23:57.749Z,90.00
2022-10-27T10:24:57.747Z,90.00
2022-10-27T10:25:57.767Z,84.38
2022-10-27T10:26:57.718Z,73.12
2022-10-27T10:27:57.724Z,73.12
2022-10-27T10:28:57.723Z,73.12
2022-10-27T10:29:57.704Z,61.88
2022-10-27T10:30:57.731Z,61.88
2022-10-27T10:31:57.694Z,67.50
2022-10-27T10:32:57.676Z,78.75
2022-10-27T10:33:57.674Z,78.75
2022-10-27T10:34:57.681Z,73.12
2022-10-27T10:35:57.677Z,73.12
2022-10-27T10:36:57.646Z,78.75
2022-10-27T10:38:01.504Z,78.75
2022-10-27T10:38:58.643Z,90.00
2022-10-27T10:39:57.630Z,90.00
2022-10-27T10:40:57.655Z,84.38
2022-10-27T10:41:57.623Z,90.00
2022-10-27T10:42:57.604Z,90.00
2022-10-27T10:43:57.588Z,84.38
2022-10-27T10:44:57.616Z,78.75
2022-10-27T10:45:57.679Z,78.75
2022-10-27T10:46:57.575Z,73.12
2022-10-27T10:47:57.581Z,78.75
2022-10-27T10:48:57.600Z,78.75
2022-10-27T10:49:57.573Z,84.38
2022-10-27T10:50:57.959Z,73.12
2022-10-27T10:51:57.536Z,84.38
2022-10-27T10:52:57.534Z,101.25
2022-10-27T10:53:57.542Z,73.12
2022-10-27T10:54:57.521Z,90.00
2022-10-27T10:55:57.558Z,95.62
2022-10-27T10:56:57.567Z,78.75
2022-10-27T10:57:57.489Z,78.75
2022-10-27T10:58:57.503Z,101.25
2022-10-27T10:59:57.491Z,78.75
2022-10-27T11:00:57.609Z,90.00
2022-10-27T11:01:57.504Z,95.62
2022-10-27T11:02:59.260Z,90.00
2022-10-27T11:03:57.439Z,101.25
2022-10-27T11:04:57.429Z,101.25
2022-10-27T11:05:57.467Z,95.62
2022-10-27T11:06:57.429Z,101.25
2022-10-27T11:07:57.409Z,95.62
2022-10-27T11:08:57.409Z,95.62
2022-10-27T11:09:57.408Z,95.62
2022-10-27T11:10:57.386Z,95.62
2022-10-27T11:11:57.419Z,95.62
2022-10-27T11:12:57.370Z,95.62
2022-10-27T11:13:57.370Z,95.62
2022-10-27T11:14:57.378Z,95.62
2022-10-27T11:15:57.343Z,95.62
2022-10-27T11:16:57.365Z,95.62
2022-10-27T11:17:57.337Z,95.62
2022-10-27T11:18:57.319Z,95.62
2022-10-27T11:19:57.426Z,95.62
2022-10-27T11:20:57.308Z,95.62
2022-10-27T11:21:57.336Z,95.62
2022-10-27T11:22:57.286Z,95.62
2022-10-27T11:23:57.285Z,95.62
2022-10-27T11:24:57.274Z,95.62
2022-10-27T11:25:57.291Z,90.00
2022-10-27T11:26:57.261Z,95.62
2022-10-27T11:27:57.249Z,90.00
2022-10-27T11:28:57.247Z,90.00
2022-10-27T11:29:57.316Z,90.00
2022-10-27T11:31:00.283Z,90.00
2022-10-27T11:31:57.222Z,90.00
2022-10-27T11:32:57.220Z,90.00
2022-10-27T11:33:57.234Z,90.00
2022-10-27T11:34:57.195Z,90.00
2022-10-27T11:35:57.225Z,90.00
2022-10-27T11:36:57.189Z,90.00
2022-10-27T11:37:57.546Z,90.00
2022-10-27T11:38:57.163Z,90.00
2022-10-27T11:39:57.150Z,90.00
2022-10-27T11:40:57.174Z,90.00
2022-10-27T11:41:57.145Z,90.00
2022-10-27T11:42:57.155Z,90.00
2022-10-27T11:44:02.111Z,90.00
2022-10-27T11:44:59.113Z,90.00
2022-10-27T11:45:57.135Z,90.00
2022-10-27T11:46:57.105Z,90.00
2022-10-27T11:47:57.098Z,90.00
2022-10-27T11:48:57.093Z,90.00
2022-10-27T11:49:57.076Z,90.00
2022-10-27T11:50:57.094Z,90.00
2022-10-27T11:51:57.085Z,90.00
2022-10-27T11:52:57.061Z,90.00
2022-10-27T11:53:57.053Z,90.00
2022-10-27T11:54:57.064Z,90.00
2022-10-27T11:55:57.062Z,90.00
2022-10-27T11:56:57.053Z,90.00
2022-10-27T11:57:57.368Z,90.00
2022-10-27T11:58:57.007Z,90.00
2022-10-27T11:59:56.994Z,90.00
2022-10-27T12:00:57.012Z,90.00
2022-10-27T12:01:57.365Z,90.00
2022-10-27T12:02:57.084Z,90.00
2022-10-27T12:03:57.207Z,90.00
2022-10-27T12:04:56.961Z,90.00
2022-10-27T12:05:57.786Z,90.00
2022-10-27T12:06:56.973Z,90.00
2022-10-27T12:07:56.936Z,90.00
2022-10-27T12:08:56.939Z,90.00
2022-10-27T12:09:56.930Z,90.00
2022-10-27T12:10:56.917Z,90.00
2022-10-27T12:11:56.939Z,90.00
2022-10-27T12:12:56.953Z,90.00
2022-10-27T12:13:56.906Z,90.00
2022-10-27T12:14:56.916Z,90.00
2022-10-27T12:15:56.885Z,90.00
2022-10-27T12:16:56.904Z,90.00
2022-10-27T12:17:56.863Z,90.00
2022-10-27T12:18:56.865Z,90.00
2022-10-27T12:20:56.842Z,90.00
2022-10-27T12:21:56.865Z,90.00
2022-10-27T12:22:56.835Z,90.00
2022-10-27T12:23:56.819Z,90.00
2022-10-27T12:24:56.814Z,90.00
2022-10-27T12:25:56.818Z,90.00
2022-10-27T12:26:56.818Z,90.00
2022-10-27T12:27:56.805Z,84.38
2022-10-27T12:28:56.800Z,90.00
2022-10-27T12:29:56.763Z,90.00
2022-10-27T12:30:58.795Z,90.00
2022-10-27T12:31:56.780Z,90.00
2022-10-27T12:32:56.761Z,90.00
2022-10-27T12:33:56.741Z,90.00
2022-10-27T12:34:56.742Z,90.00
2022-10-27T12:35:56.785Z,90.00
2022-10-27T12:36:56.741Z,90.00
2022-10-27T12:37:57.181Z,90.00
2022-10-27T12:38:56.708Z,90.00
2022-10-27T12:39:56.710Z,90.00
2022-10-27T12:40:56.692Z,90.00
2022-10-27T12:41:56.720Z,90.00
2022-10-27T12:42:56.670Z,90.00
2022-10-27T12:43:56.680Z,90.00
2022-10-27T12:45:56.645Z,84.38
2022-10-27T12:46:56.670Z,84.38
2022-10-27T12:47:56.991Z,84.38
2022-10-27T12:48:56.635Z,84.38
2022-10-27T12:49:56.615Z,84.38
2022-10-27T12:50:56.631Z,84.38
2022-10-27T12:51:56.670Z,84.38
2022-10-27T12:52:56.608Z,84.38
2022-10-27T12:53:56.607Z,84.38
2022-10-27T12:54:56.581Z,84.38
2022-10-27T12:55:56.562Z,84.38
2022-10-27T12:56:57.595Z,84.38
2022-10-27T12:57:56.570Z,84.38
2022-10-27T12:58:56.557Z,84.38
2022-10-27T12:59:56.565Z,84.38
2022-10-27T13:00:56.625Z,84.38
2022-10-27T13:01:56.712Z,84.38
2022-10-27T13:02:56.514Z,84.38
2022-10-27T13:03:56.511Z,78.75
2022-10-27T13:04:56.511Z,78.75
2022-10-27T13:05:56.495Z,78.75
2022-10-27T13:06:56.488Z,78.75
2022-10-27T13:07:57.558Z,78.75
2022-10-27T13:08:56.505Z,78.75
2022-10-27T13:09:56.489Z,78.75